createdAt,value
2023-05-20T00:00:28.684Z,10.74
2023-05-20T00:03:38.797Z,10.74
2023-05-20T00:06:46.841Z,10.73
2023-05-20T00:09:53.724Z,10.75
2023-05-20T00:12:53.368Z,10.76
2023-05-20T00:16:00.304Z,10.78
2023-05-20T00:19:07.347Z,10.79
2023-05-20T00:22:14.345Z,10.78
2023-05-20T00:25:21.754Z,10.76
2023-05-20T00:28:28.345Z,10.75
2023-05-20T00:31:35.797Z,10.74
2023-05-20T00:34:49.149Z,10.72
2023-05-20T00:37:54.877Z,10.75
2023-05-20T00:41:01.937Z,10.75
2023-05-20T00:44:15.064Z,10.75
2023-05-20T00:47:21.833Z,10.75
2023-05-20T00:50:29.818Z,10.75
2023-05-20T00:53:40.705Z,10.73
2023-05-20T00:56:48.375Z,10.69
2023-05-20T00:59:55.395Z,10.65
2023-05-20T01:03:02.551Z,10.61
2023-05-20T01:06:29.610Z,10.61
2023-05-20T01:09:36.416Z,10.63
2023-05-20T01:13:04.206Z,10.62
2023-05-20T01:16:12.260Z,10.62
2023-05-20T01:19:19.265Z,10.63
2023-05-20T01:22:26.307Z,10.65
2023-05-20T01:25:33.451Z,10.66
2023-05-20T01:28:40.787Z,10.68
2023-05-20T01:31:49.772Z,10.69
2023-05-20T01:34:56.772Z,10.70
2023-05-20T01:37:54.594Z,10.70
2023-05-20T01:41:01.698Z,10.70
2023-05-20T01:44:08.636Z,10.71
2023-05-20T01:47:15.778Z,10.72
2023-05-20T01:50:22.632Z,10.74
2023-05-20T01:53:30.345Z,10.75
2023-05-20T01:56:37.346Z,10.76
2023-05-20T01:59:44.254Z,10.78
2023-05-20T02:02:51.436Z,10.80
2023-05-20T02:05:58.145Z,10.81
2023-05-20T02:09:05.024Z,10.82
2023-05-20T02:12:11.923Z,10.82
2023-05-20T02:15:19.317Z,10.83
2023-05-20T02:18:26.503Z,10.84
2023-05-20T02:21:36.282Z,10.86
2023-05-20T02:24:43.497Z,10.87
2023-05-20T02:27:50.517Z,10.89
2023-05-20T02:30:57.595Z,10.90
2023-05-20T02:33:53.657Z,10.91
2023-05-20T02:36:54.485Z,10.91
2023-05-20T02:40:01.488Z,10.92
2023-05-20T02:42:53.486Z,10.92
2023-05-20T02:46:01.368Z,10.95
2023-05-20T02:49:08.353Z,10.96
2023-05-20T02:52:15.390Z,10.98
2023-05-20T02:55:22.385Z,10.98
2023-05-20T02:58:29.384Z,10.99
2023-05-20T03:01:22.029Z,10.98
2023-05-20T03:04:27.550Z,10.98
2023-05-20T03:07:34.816Z,11.00
2023-05-20T03:10:45.172Z,11.02
2023-05-20T03:13:52.176Z,11.04
2023-05-20T03:16:59.148Z,11.05
2023-05-20T03:20:07.164Z,11.06
2023-05-20T03:23:18.325Z,11.09
2023-05-20T03:26:45.693Z,11.10
2023-05-20T03:29:53.623Z,11.11
2023-05-20T03:33:00.631Z,11.14
2023-05-20T03:36:08.591Z,11.15
2023-05-20T03:39:15.690Z,11.18
2023-05-20T03:42:22.690Z,11.19
2023-05-20T03:45:49.526Z,11.21
2023-05-20T03:48:57.105Z,11.24
2023-05-20T03:52:04.013Z,11.28
2023-05-20T03:55:11.567Z,11.32
2023-05-20T03:58:18.600Z,11.36
2023-05-20T04:01:25.486Z,11.41
2023-05-20T04:04:22.483Z,11.46
2023-05-20T04:07:29.468Z,11.49
2023-05-20T04:10:36.538Z,11.54
2023-05-20T04:13:37.146Z,11.59
2023-05-20T04:16:43.275Z,11.65
2023-05-20T04:19:50.456Z,11.72
2023-05-20T04:22:57.558Z,11.78
2023-05-20T04:26:04.812Z,11.82
2023-05-20T04:29:11.379Z,11.88
2023-05-20T04:32:18.416Z,11.95
2023-05-20T04:35:25.850Z,12.03
2023-05-20T04:38:32.896Z,12.09
2023-05-20T04:41:39.769Z,12.16
2023-05-20T04:44:47.002Z,12.20
2023-05-20T04:47:53.994Z,12.22
2023-05-20T04:51:07.881Z,12.28
2023-05-20T04:54:26.485Z,12.34
2023-05-20T04:57:33.339Z,12.38
2023-05-20T05:00:40.306Z,12.43
2023-05-20T05:04:08.680Z,12.47
2023-05-20T05:07:35.784Z,12.48
2023-05-20T05:10:43.120Z,12.49
2023-05-20T05:13:55.494Z,12.52
2023-05-20T05:17:04.550Z,12.54
2023-05-20T05:20:11.475Z,12.55
2023-05-20T05:23:18.601Z,12.53
2023-05-20T05:26:30.382Z,12.54
2023-05-20T05:29:46.109Z,12.54
2023-05-20T05:32:45.746Z,12.56
2023-05-20T05:35:52.724Z,12.64
2023-05-20T05:38:59.756Z,12.75
2023-05-20T05:41:49.724Z,12.86
2023-05-20T05:45:05.906Z,12.96
2023-05-20T05:48:13.042Z,13.07
2023-05-20T05:51:20.531Z,13.15
2023-05-20T05:54:27.684Z,13.25
2023-05-20T05:57:36.966Z,13.35
2023-05-20T06:00:44.730Z,13.44
2023-05-20T06:03:51.502Z,13.55
2023-05-20T06:06:59.087Z,13.67
2023-05-20T06:10:06.033Z,13.80
2023-05-20T06:13:19.304Z,13.93
2023-05-20T06:16:26.775Z,14.07
2023-05-20T06:19:34.322Z,14.19
2023-05-20T06:23:01.942Z,14.36
2023-05-20T06:26:17.527Z,14.53
2023-05-20T06:29:26.562Z,14.69
2023-05-20T06:32:33.882Z,14.83
2023-05-20T06:35:42.161Z,14.98
2023-05-20T06:38:53.549Z,15.10
2023-05-20T06:42:09.555Z,15.13
2023-05-20T06:45:10.048Z,15.15
2023-05-20T06:48:23.024Z,15.18
2023-05-20T06:51:31.827Z,15.22
2023-05-20T06:54:38.723Z,15.28
2023-05-20T06:57:36.331Z,15.34
2023-05-20T07:00:43.880Z,15.49
2023-05-20T07:03:51.041Z,15.68
2023-05-20T07:06:58.047Z,15.78
2023-05-20T07:09:57.664Z,15.86
2023-05-20T07:13:04.534Z,15.96
2023-05-20T07:16:11.819Z,16.02
2023-05-20T07:19:18.824Z,16.07
2023-05-20T07:22:19.258Z,16.19
2023-05-20T07:25:36.388Z,16.22
2023-05-20T07:28:43.305Z,16.21
2023-05-20T07:31:50.255Z,16.18
2023-05-20T07:34:59.366Z,16.22
2023-05-20T07:38:07.159Z,16.32
2023-05-20T07:41:14.323Z,16.44
2023-05-20T07:44:24.320Z,16.55
2023-05-20T07:47:31.023Z,16.66
2023-05-20T07:50:38.091Z,16.75
2023-05-20T07:53:45.127Z,16.83
2023-05-20T07:56:52.124Z,16.82
2023-05-20T08:00:01.391Z,16.82
2023-05-20T08:03:08.660Z,16.85
2023-05-20T08:06:19.683Z,16.85
2023-05-20T08:09:26.602Z,16.89
2023-05-20T08:12:41.721Z,16.91
2023-05-20T08:15:49.617Z,16.92
2023-05-20T08:18:56.942Z,16.86
2023-05-20T08:22:05.913Z,16.76
2023-05-20T08:25:13.080Z,16.74
2023-05-20T08:28:22.365Z,16.82
2023-05-20T08:31:29.625Z,16.83
2023-05-20T08:34:40.182Z,16.80
2023-05-20T08:41:15.083Z,17.01
2023-05-20T08:44:36.928Z,17.17
2023-05-20T08:47:44.250Z,17.24
2023-05-20T08:50:51.341Z,17.33
2023-05-20T08:54:21.687Z,17.42
2023-05-20T08:58:11.353Z,17.40
2023-05-20T09:01:18.380Z,17.42
2023-05-20T09:04:18.217Z,17.47
2023-05-20T09:07:25.245Z,17.65
2023-05-20T09:10:14.896Z,17.94
2023-05-20T09:13:23.815Z,18.11
2023-05-20T09:16:31.048Z,18.22
2023-05-20T09:19:38.894Z,18.41
2023-05-20T09:22:45.933Z,18.71
2023-05-20T09:25:53.038Z,19.00
2023-05-20T09:29:00.026Z,19.09
2023-05-20T09:31:59.963Z,19.28
2023-05-20T09:35:07.012Z,19.51
2023-05-20T09:38:13.969Z,19.70
2023-05-20T09:41:21.254Z,19.76
2023-05-20T09:44:28.213Z,19.62
2023-05-20T09:47:35.751Z,19.50
2023-05-20T09:50:42.757Z,19.32
2023-05-20T09:53:42.180Z,19.14
2023-05-20T09:56:57.204Z,19.05
2023-05-20T09:59:58.636Z,18.96
2023-05-20T10:03:25.845Z,18.86
2023-05-20T10:06:33.197Z,18.82
2023-05-20T10:09:52.395Z,18.90
2023-05-20T10:12:59.361Z,18.85
2023-05-20T10:16:25.035Z,18.75
2023-05-20T10:19:32.961Z,18.54
2023-05-20T10:22:46.812Z,18.52
2023-05-20T10:25:53.683Z,18.61
2023-05-20T10:29:00.740Z,18.60
2023-05-20T10:32:08.782Z,18.55
2023-05-20T10:35:19.271Z,18.55
2023-05-20T10:38:28.916Z,18.58
2023-05-20T10:41:36.126Z,18.56
2023-05-20T10:45:02.982Z,18.48
2023-05-20T10:48:16.246Z,18.46
2023-05-20T10:51:23.392Z,18.67
2023-05-20T10:54:30.328Z,18.99
2023-05-20T10:57:39.218Z,19.31
2023-05-20T11:00:46.401Z,19.54
2023-05-20T11:03:53.528Z,19.70
2023-05-20T11:07:00.704Z,19.85
2023-05-20T11:10:10.747Z,20.00
2023-05-20T11:13:17.822Z,20.07
2023-05-20T11:16:24.965Z,20.11
2023-05-20T11:19:34.835Z,20.23
2023-05-20T11:22:41.959Z,20.36
2023-05-20T11:25:49.850Z,20.42
2023-05-20T11:28:59.266Z,20.56
2023-05-20T11:32:08.063Z,20.86
2023-05-20T11:35:19.370Z,21.25
2023-05-20T11:38:26.425Z,21.98
2023-05-20T11:41:33.754Z,22.28
2023-05-20T11:44:40.751Z,22.33
2023-05-20T11:47:48.021Z,22.10
2023-05-20T11:50:57.591Z,22.03
2023-05-20T11:54:05.849Z,22.88
2023-05-20T11:57:28.079Z,24.18
2023-05-20T12:00:49.245Z,24.93
2023-05-20T12:04:17.816Z,25.26
2023-05-20T12:07:27.537Z,24.85
2023-05-20T12:10:34.664Z,24.80
2023-05-20T12:13:41.929Z,25.53
2023-05-20T12:16:49.031Z,26.20
2023-05-20T12:19:57.232Z,26.74
2023-05-20T12:23:04.943Z,27.20
2023-05-20T12:26:12.081Z,27.49
2023-05-20T12:29:19.427Z,27.98
2023-05-20T12:32:28.632Z,28.66
2023-05-20T12:35:35.684Z,29.00
2023-05-20T12:38:42.716Z,29.28
2023-05-20T12:41:49.968Z,29.57
2023-05-20T12:44:49.713Z,29.80
2023-05-20T12:47:56.863Z,30.37
2023-05-20T12:51:04.072Z,30.40
2023-05-20T12:54:12.765Z,30.63
2023-05-20T12:57:19.636Z,30.89
2023-05-20T13:00:26.760Z,31.28
2023-05-20T13:03:33.722Z,31.76
2023-05-20T13:06:30.697Z,31.99
2023-05-20T13:09:37.751Z,32.54
2023-05-20T13:12:44.616Z,33.16
2023-05-20T13:15:41.472Z,33.65
2023-05-20T13:18:48.132Z,34.10
2023-05-20T13:21:55.278Z,34.18
2023-05-20T13:25:02.350Z,34.00
2023-05-20T13:28:09.489Z,33.72
2023-05-20T13:31:15.039Z,33.38
2023-05-20T13:34:22.106Z,33.36
2023-05-20T13:37:29.134Z,33.46
2023-05-20T13:40:36.221Z,34.04
2023-05-20T13:43:43.401Z,34.51
2023-05-20T13:46:50.277Z,34.58
2023-05-20T13:49:57.314Z,34.49
2023-05-20T13:52:55.073Z,34.43
2023-05-20T13:56:02.003Z,34.63
2023-05-20T13:59:10.033Z,34.86
2023-05-20T14:02:17.399Z,35.31
2023-05-20T14:05:24.550Z,35.77
2023-05-20T14:08:31.546Z,36.38
2023-05-20T14:11:38.722Z,36.41
2023-05-20T14:14:45.641Z,36.70
2023-05-20T14:17:52.707Z,36.89
2023-05-20T14:20:59.970Z,37.01
2023-05-20T14:23:59.570Z,37.10
2023-05-20T14:27:06.532Z,36.72
2023-05-20T14:30:13.351Z,36.82
2023-05-20T14:33:20.361Z,36.95
2023-05-20T14:36:27.331Z,36.65
2023-05-20T14:39:24.064Z,36.35
2023-05-20T14:42:31.074Z,36.20
2023-05-20T14:45:38.044Z,36.57
2023-05-20T14:48:45.105Z,36.76
2023-05-20T14:51:52.155Z,36.43
2023-05-20T14:54:59.029Z,36.15
2023-05-20T14:58:05.918Z,35.83
2023-05-20T15:01:12.962Z,35.45
2023-05-20T15:04:19.842Z,34.96
2023-05-20T15:07:27.103Z,34.65
2023-05-20T15:10:34.564Z,34.49
2023-05-20T15:13:41.950Z,34.59
2023-05-20T15:16:48.944Z,34.72
2023-05-20T15:19:56.924Z,34.72
2023-05-20T15:23:04.212Z,34.55
2023-05-20T15:26:11.112Z,34.92
2023-05-20T15:29:18.204Z,35.17
2023-05-20T15:32:33.914Z,35.27
2023-05-20T15:35:33.952Z,35.12
2023-05-20T15:38:41.783Z,34.97
2023-05-20T15:41:48.334Z,34.60
2023-05-20T15:44:55.280Z,34.21
2023-05-20T15:48:02.377Z,34.30
2023-05-20T15:51:09.529Z,34.33
2023-05-20T15:54:16.688Z,34.12
2023-05-20T15:57:23.730Z,34.12
2023-05-20T16:00:33.207Z,34.39
2023-05-20T16:03:26.195Z,34.59
2023-05-20T16:06:35.307Z,34.35
2023-05-20T16:09:42.447Z,34.03
2023-05-20T16:12:49.504Z,34.23
2023-05-20T16:15:56.500Z,34.35
2023-05-20T16:19:07.374Z,34.29
2023-05-20T16:22:14.640Z,34.16
2023-05-20T16:25:14.614Z,33.95
2023-05-20T16:28:14.287Z,33.46
2023-05-20T16:31:21.355Z,32.92
2023-05-20T16:34:28.313Z,32.67
2023-05-20T16:37:35.438Z,32.33
2023-05-20T16:40:42.387Z,31.81
2023-05-20T16:43:49.490Z,31.49
2023-05-20T16:46:54.929Z,31.28
2023-05-20T16:49:54.634Z,31.00
2023-05-20T16:53:02.080Z,30.62
2023-05-20T16:56:00.057Z,30.47
2023-05-20T16:59:08.141Z,30.30
2023-05-20T17:02:16.138Z,30.23
2023-05-20T17:05:26.612Z,30.01
2023-05-20T17:08:33.681Z,28.93
2023-05-20T17:11:34.538Z,27.58
2023-05-20T17:14:41.575Z,26.39
2023-05-20T17:17:48.711Z,25.41
2023-05-20T17:21:15.829Z,24.56
2023-05-20T17:24:15.353Z,23.96
2023-05-20T17:27:23.982Z,23.42
2023-05-20T17:30:30.984Z,22.96
2023-05-20T17:33:46.646Z,22.51
2023-05-20T17:36:53.828Z,22.13
2023-05-20T17:40:00.828Z,21.81
2023-05-20T17:43:07.745Z,21.56
2023-05-20T17:46:14.907Z,21.33
2023-05-20T17:49:22.045Z,21.11
2023-05-20T17:52:21.489Z,20.98
2023-05-20T17:55:28.682Z,20.89
2023-05-20T17:58:56.270Z,20.77
2023-05-20T18:02:25.107Z,20.65
2023-05-20T18:05:32.475Z,20.55
2023-05-20T18:08:31.075Z,20.39
2023-05-20T18:11:38.119Z,20.19
2023-05-20T18:14:45.225Z,19.99
2023-05-20T18:17:52.916Z,19.80
2023-05-20T18:20:59.967Z,19.63
2023-05-20T18:23:57.023Z,19.47
2023-05-20T18:27:05.086Z,19.29
2023-05-20T18:30:12.791Z,19.13
2023-05-20T18:33:24.461Z,18.96
2023-05-20T18:36:33.556Z,18.81
2023-05-20T18:40:27.330Z,18.63
2023-05-20T18:43:17.129Z,18.45
2023-05-20T18:46:24.513Z,18.28
2023-05-20T18:49:32.551Z,18.13
2023-05-20T18:52:43.141Z,17.98
2023-05-20T18:55:50.506Z,17.83
2023-05-20T18:59:01.601Z,17.68
2023-05-20T19:02:15.222Z,17.54
2023-05-20T19:05:24.322Z,17.42
2023-05-20T19:08:51.454Z,17.30
2023-05-20T19:12:35.240Z,17.20
2023-05-20T19:16:05.206Z,17.12
2023-05-20T19:19:33.561Z,17.03
2023-05-20T19:22:31.358Z,16.97
2023-05-20T19:25:58.709Z,16.90
2023-05-20T19:29:27.409Z,16.80
2023-05-20T19:32:34.700Z,16.74
2023-05-20T19:35:42.998Z,16.68
2023-05-20T19:39:10.430Z,16.60
2023-05-20T19:42:37.312Z,16.51
2023-05-20T19:45:46.397Z,16.41
2023-05-20T19:48:54.208Z,16.34
2023-05-20T19:52:21.294Z,16.30
2023-05-20T19:55:29.560Z,16.25
2023-05-20T19:58:56.986Z,16.19
2023-05-20T20:02:33.592Z,16.08
2023-05-20T20:06:18.167Z,15.94
2023-05-20T20:09:47.455Z,15.83
2023-05-20T20:12:55.774Z,15.76
2023-05-20T20:16:03.275Z,15.70
2023-05-20T20:19:26.927Z,15.64
2023-05-20T20:22:38.275Z,15.59
2023-05-20T20:25:46.395Z,15.51
2023-05-20T20:28:53.510Z,15.46
2023-05-20T20:32:00.492Z,15.40
2023-05-20T20:35:06.955Z,15.34
2023-05-20T20:38:13.643Z,15.29
2023-05-20T20:41:20.768Z,15.24
2023-05-20T20:44:30.766Z,15.19
2023-05-20T20:47:46.428Z,15.15
2023-05-20T20:50:53.697Z,15.13
2023-05-20T20:54:01.655Z,15.09
2023-05-20T20:57:08.578Z,15.05
2023-05-20T21:00:15.758Z,15.02
2023-05-20T21:03:23.160Z,14.98
2023-05-20T21:06:34.526Z,14.95
2023-05-20T21:09:41.940Z,14.92
2023-05-20T21:13:10.999Z,14.89
2023-05-20T21:16:21.332Z,14.85
2023-05-20T21:19:28.798Z,14.82
2023-05-20T21:22:44.381Z,14.83
2023-05-20T21:26:00.923Z,14.81
2023-05-20T21:29:08.632Z,14.80
2023-05-20T21:32:17.038Z,14.79
2023-05-20T21:35:24.449Z,14.78
2023-05-20T21:38:31.645Z,14.77
2023-05-20T21:41:38.536Z,14.77
2023-05-20T21:44:45.623Z,14.74
2023-05-20T21:47:55.691Z,14.70
2023-05-20T21:51:11.358Z,14.56
2023-05-20T21:54:18.544Z,14.40
2023-05-20T21:57:29.408Z,14.28
2023-05-20T22:00:36.641Z,14.23
2023-05-20T22:04:03.745Z,14.21
2023-05-20T22:07:18.978Z,14.20
2023-05-20T22:10:35.577Z,14.19
2023-05-20T22:13:42.672Z,14.20
2023-05-20T22:16:50.906Z,14.21
2023-05-20T22:19:58.040Z,14.22
2023-05-20T22:23:08.027Z,14.23
2023-05-20T22:26:08.734Z,14.23
2023-05-20T22:29:18.425Z,14.21
2023-05-20T22:32:26.529Z,14.20
2023-05-20T22:35:34.357Z,14.18
2023-05-20T22:39:21.290Z,14.16
2023-05-20T22:42:32.662Z,14.14
2023-05-20T22:45:39.972Z,14.12
2023-05-20T22:49:17.152Z,14.10
2023-05-20T22:52:24.839Z,14.06
2023-05-20T22:55:32.566Z,14.03
2023-05-20T22:58:43.826Z,14.01
2023-05-20T23:01:51.010Z,13.97
2023-05-20T23:04:59.504Z,13.94
2023-05-20T23:08:22.437Z,13.90
2023-05-20T23:11:29.717Z,13.87
2023-05-20T23:14:44.024Z,13.84
2023-05-20T23:18:11.029Z,13.81
2023-05-20T23:21:21.352Z,13.78
2023-05-20T23:24:28.227Z,13.73
2023-05-20T23:27:34.955Z,13.70
2023-05-20T23:30:45.941Z,13.65
2023-05-20T23:33:53.338Z,13.62
2023-05-20T23:37:00.569Z,13.60
2023-05-20T23:40:09.172Z,13.60
2023-05-20T23:43:16.297Z,13.60
2023-05-20T23:46:43.356Z,13.60
2023-05-20T23:49:51.495Z,13.61
2023-05-20T23:52:58.571Z,13.64
2023-05-20T23:56:05.609Z,13.66
2023-05-20T23:59:13.058Z,13.69
